createdAt,value
2023-01-30T00:01:27.320Z,24.70
2023-01-30T00:04:04.708Z,24.60
2023-01-30T00:06:42.718Z,28.40
2023-01-30T00:09:20.876Z,24.00
2023-01-30T00:11:58.267Z,24.00
2023-01-30T00:14:34.813Z,24.40
2023-01-30T00:17:11.593Z,22.10
2023-01-30T00:19:48.442Z,26.10
2023-01-30T00:22:25.073Z,22.30
2023-01-30T00:25:02.099Z,24.20
2023-01-30T00:27:39.700Z,26.50
2023-01-30T00:30:21.163Z,25.10
2023-01-30T00:33:01.952Z,28.60
2023-01-30T00:35:37.669Z,24.70
2023-01-30T00:38:14.391Z,25.90
2023-01-30T00:40:51.686Z,29.60
2023-01-30T00:43:45.555Z,29.70
2023-01-30T00:47:05.762Z,26.40
2023-01-30T00:49:42.389Z,25.20
2023-01-30T00:52:18.986Z,30.30
2023-01-30T00:54:55.405Z,26.70
2023-01-30T00:57:32.164Z,26.80
2023-01-30T01:00:11.103Z,23.90
2023-01-30T01:02:50.101Z,23.50
2023-01-30T01:05:26.607Z,20.90
2023-01-30T01:08:03.543Z,20.80
2023-01-30T01:10:40.152Z,24.40
2023-01-30T01:13:17.093Z,20.10
2023-01-30T01:15:54.463Z,25.50
2023-01-30T01:18:31.431Z,20.70
2023-01-30T01:21:08.482Z,20.30
2023-01-30T01:23:44.620Z,21.00
2023-01-30T01:26:21.703Z,21.70
2023-01-30T01:29:01.983Z,23.20
2023-01-30T01:31:39.885Z,19.30
2023-01-30T01:34:16.547Z,19.20
2023-01-30T01:36:56.420Z,23.00
2023-01-30T01:39:46.498Z,19.20
2023-01-30T01:42:23.104Z,17.70
2023-01-30T01:45:20.667Z,24.70
2023-01-30T01:48:12.433Z,23.20
2023-01-30T01:50:56.314Z,26.70
2023-01-30T01:53:41.402Z,32.20
2023-01-30T01:56:22.066Z,31.20
2023-01-30T01:59:05.148Z,27.50
2023-01-30T02:01:41.593Z,29.10
2023-01-30T02:04:39.057Z,28.70
2023-01-30T02:07:17.579Z,29.00
2023-01-30T02:09:55.763Z,25.90
2023-01-30T02:12:33.663Z,21.50
2023-01-30T02:15:15.916Z,23.10
2023-01-30T02:17:52.628Z,18.30
2023-01-30T02:20:47.860Z,20.00
2023-01-30T02:24:09.412Z,21.40
2023-01-30T02:27:21.819Z,18.60
2023-01-30T02:30:27.894Z,19.30
2023-01-30T02:33:19.953Z,22.80
2023-01-30T02:36:12.940Z,23.20
2023-01-30T02:39:03.217Z,24.10
2023-01-30T02:41:51.065Z,22.30
2023-01-30T02:44:40.830Z,22.70
2023-01-30T02:47:24.684Z,16.80
2023-01-30T02:50:10.411Z,21.70
2023-01-30T02:52:48.392Z,26.90
2023-01-30T02:55:30.770Z,23.20
2023-01-30T02:58:09.112Z,30.00
2023-01-30T03:01:19.680Z,31.30
2023-01-30T03:04:27.715Z,23.60
2023-01-30T03:07:25.875Z,20.10
2023-01-30T03:10:12.294Z,17.20
2023-01-30T03:13:05.303Z,18.60
2023-01-30T03:15:48.985Z,22.40
2023-01-30T03:18:25.814Z,24.10
2023-01-30T03:21:09.705Z,28.30
2023-01-30T03:23:47.130Z,26.50
2023-01-30T03:26:27.757Z,28.50
2023-01-30T03:29:05.055Z,24.20
2023-01-30T03:31:42.267Z,23.70
2023-01-30T03:34:19.615Z,24.90
2023-01-30T03:36:57.304Z,25.10
2023-01-30T03:39:33.602Z,23.70
2023-01-30T03:42:11.731Z,23.50
2023-01-30T03:44:48.566Z,25.60
2023-01-30T03:47:25.524Z,27.40
2023-01-30T03:50:02.274Z,25.80
2023-01-30T03:52:42.743Z,25.20
2023-01-30T03:55:21.864Z,20.30
2023-01-30T03:58:02.510Z,22.00
2023-01-30T04:00:41.807Z,21.40
2023-01-30T04:03:18.499Z,17.90
2023-01-30T04:05:56.036Z,21.70
2023-01-30T04:08:32.611Z,17.80
2023-01-30T04:11:09.618Z,19.00
2023-01-30T04:13:46.126Z,16.20
2023-01-30T04:16:29.864Z,23.80
2023-01-30T04:19:36.121Z,24.80
2023-01-30T04:22:12.515Z,24.10
2023-01-30T04:24:49.711Z,22.90
2023-01-30T04:27:25.985Z,21.00
2023-01-30T04:30:22.352Z,19.70
2023-01-30T04:33:02.165Z,25.40
2023-01-30T04:35:38.458Z,23.20
2023-01-30T04:38:15.689Z,20.00
2023-01-30T04:40:56.639Z,21.10
2023-01-30T04:43:35.581Z,21.70
2023-01-30T04:46:15.102Z,21.90
2023-01-30T04:48:52.069Z,21.70
2023-01-30T04:51:28.840Z,20.30
2023-01-30T04:54:09.000Z,19.70
2023-01-30T04:56:45.373Z,19.20
2023-01-30T04:59:21.369Z,20.40
2023-01-30T05:01:57.753Z,22.90
2023-01-30T05:04:34.642Z,23.40
2023-01-30T05:07:12.019Z,20.90
2023-01-30T05:09:48.160Z,18.10
2023-01-30T05:12:25.530Z,29.20
2023-01-30T05:15:03.361Z,30.80
2023-01-30T05:17:42.008Z,28.20
2023-01-30T05:20:24.157Z,23.10
2023-01-30T05:23:00.856Z,23.10
2023-01-30T05:25:37.594Z,19.70
2023-01-30T05:28:14.973Z,19.20
2023-01-30T05:30:51.354Z,18.40
2023-01-30T05:33:29.044Z,19.60
2023-01-30T05:36:06.694Z,17.40
2023-01-30T05:38:45.464Z,19.00
2023-01-30T05:41:23.847Z,18.20
2023-01-30T05:44:00.476Z,18.30
2023-01-30T05:46:36.663Z,15.50
2023-01-30T05:49:14.104Z,17.40
2023-01-30T05:51:51.658Z,17.60
2023-01-30T05:54:29.576Z,21.60
2023-01-30T05:57:06.131Z,21.90
2023-01-30T05:59:43.104Z,20.30
2023-01-30T06:02:20.315Z,20.40
2023-01-30T06:04:56.979Z,20.70
2023-01-30T06:07:32.830Z,18.10
2023-01-30T06:10:12.895Z,26.80
2023-01-30T06:12:49.915Z,24.10
2023-01-30T06:15:27.286Z,26.30
2023-01-30T06:18:04.283Z,28.40
2023-01-30T06:20:41.497Z,27.40
2023-01-30T06:23:18.561Z,25.50
2023-01-30T06:25:56.995Z,24.70
2023-01-30T06:28:34.024Z,20.90
2023-01-30T06:31:13.137Z,22.50
2023-01-30T06:33:51.285Z,21.20
2023-01-30T06:36:28.721Z,25.50
2023-01-30T06:39:05.359Z,19.20
2023-01-30T06:41:42.515Z,19.70
2023-01-30T06:44:19.906Z,20.60
2023-01-30T06:46:57.695Z,20.60
2023-01-30T06:49:34.474Z,17.90
2023-01-30T06:52:12.644Z,18.40
2023-01-30T06:54:49.045Z,18.60
2023-01-30T06:57:26.247Z,17.90
2023-01-30T07:00:03.405Z,18.20
2023-01-30T07:02:40.661Z,17.40
2023-01-30T07:05:18.536Z,27.00
2023-01-30T07:07:55.229Z,29.30
2023-01-30T07:10:32.749Z,25.70
2023-01-30T07:13:10.058Z,22.90
2023-01-30T07:15:47.181Z,23.80
2023-01-30T07:18:24.670Z,20.00
2023-01-30T07:21:02.229Z,25.10
2023-01-30T07:23:39.423Z,22.80
2023-01-30T07:26:16.678Z,26.80
2023-01-30T07:28:53.899Z,20.50
2023-01-30T07:31:30.347Z,32.20
2023-01-30T07:34:07.501Z,28.50
2023-01-30T07:36:44.495Z,23.50
2023-01-30T07:39:21.620Z,23.60
2023-01-30T07:41:58.690Z,19.00
2023-01-30T07:44:36.037Z,21.60
2023-01-30T07:47:13.189Z,13.70
2023-01-30T07:49:50.118Z,21.40
2023-01-30T07:52:27.014Z,26.60
2023-01-30T07:55:04.511Z,31.30
2023-01-30T07:57:42.980Z,28.40
2023-01-30T08:00:28.024Z,30.50
2023-01-30T08:03:04.777Z,34.30
2023-01-30T08:05:40.904Z,35.50
2023-01-30T08:08:17.517Z,30.60
2023-01-30T08:10:56.879Z,28.70
2023-01-30T08:13:33.388Z,29.50
2023-01-30T08:16:12.531Z,25.50
2023-01-30T08:18:49.340Z,24.20
2023-01-30T08:21:25.621Z,23.40
2023-01-30T08:24:01.604Z,31.20
2023-01-30T08:26:38.551Z,25.40
2023-01-30T08:29:15.733Z,28.90
2023-01-30T08:31:52.705Z,29.70
2023-01-30T08:34:28.718Z,23.30
2023-01-30T08:37:05.417Z,21.60
2023-01-30T08:39:42.449Z,22.50
2023-01-30T08:42:19.652Z,21.00
2023-01-30T08:44:56.485Z,20.50
2023-01-30T08:47:33.243Z,21.70
2023-01-30T08:50:12.878Z,25.10
2023-01-30T08:52:50.403Z,29.20
2023-01-30T08:55:26.572Z,29.40
2023-01-30T08:58:03.853Z,27.40
2023-01-30T09:00:44.658Z,28.40
2023-01-30T09:03:22.733Z,23.80
2023-01-30T09:06:03.509Z,26.50
2023-01-30T09:08:40.324Z,21.60
2023-01-30T09:11:18.036Z,24.60
2023-01-30T09:13:54.875Z,23.50
2023-01-30T09:16:32.521Z,23.00
2023-01-30T09:19:09.223Z,17.10
2023-01-30T09:21:45.281Z,20.80
2023-01-30T09:24:21.408Z,19.80
2023-01-30T09:26:59.193Z,21.90
2023-01-30T09:29:35.411Z,19.30
2023-01-30T09:32:12.327Z,19.00
2023-01-30T09:34:49.390Z,21.20
2023-01-30T09:37:25.704Z,21.10
2023-01-30T09:40:02.984Z,22.20
2023-01-30T09:43:13.638Z,21.80
2023-01-30T09:46:15.423Z,26.00
2023-01-30T09:49:06.057Z,23.00
2023-01-30T09:52:00.791Z,25.50
2023-01-30T09:54:43.111Z,20.30
2023-01-30T09:57:26.723Z,22.30
2023-01-30T10:00:14.594Z,26.10
2023-01-30T10:03:02.136Z,24.80
2023-01-30T10:05:47.090Z,21.50
2023-01-30T10:08:52.908Z,21.10
2023-01-30T10:11:55.467Z,23.00
2023-01-30T10:14:47.940Z,20.80
2023-01-30T10:17:48.510Z,21.40
2023-01-30T10:20:49.042Z,22.40
2023-01-30T10:23:59.360Z,26.90
2023-01-30T10:26:36.507Z,21.50
2023-01-30T10:29:22.052Z,21.70
2023-01-30T10:32:12.915Z,23.80
2023-01-30T10:34:56.147Z,24.40
2023-01-30T10:37:43.021Z,23.00
2023-01-30T10:40:29.502Z,21.10
2023-01-30T10:43:16.814Z,27.30
2023-01-30T10:46:04.675Z,19.50
2023-01-30T10:49:02.121Z,36.20
2023-01-30T10:51:57.865Z,30.80
2023-01-30T10:54:40.589Z,31.40
2023-01-30T10:57:32.433Z,33.50
2023-01-30T11:00:18.278Z,25.90
2023-01-30T11:03:30.315Z,37.20
2023-01-30T11:06:13.414Z,26.30
2023-01-30T11:08:50.008Z,29.90
2023-01-30T11:11:37.601Z,29.90
2023-01-30T11:14:15.826Z,26.90
2023-01-30T11:16:56.721Z,27.10
2023-01-30T11:19:40.912Z,24.90
2023-01-30T11:22:21.688Z,29.10
2023-01-30T11:25:14.053Z,23.40
2023-01-30T11:28:02.804Z,27.80
2023-01-30T11:30:42.311Z,28.20
2023-01-30T11:33:23.255Z,30.30
2023-01-30T11:36:05.894Z,31.70
2023-01-30T11:38:57.728Z,28.50
2023-01-30T11:41:36.225Z,33.00
2023-01-30T11:44:14.614Z,36.30
2023-01-30T11:46:52.154Z,30.90
2023-01-30T11:49:45.993Z,31.90
2023-01-30T11:52:38.491Z,30.40
2023-01-30T11:55:23.378Z,34.40
2023-01-30T11:58:04.577Z,39.40
2023-01-30T12:00:49.730Z,37.30
2023-01-30T12:03:29.619Z,40.20
2023-01-30T12:06:09.164Z,34.30
2023-01-30T12:08:48.065Z,36.00
2023-01-30T12:11:45.384Z,34.60
2023-01-30T12:14:44.400Z,36.50
2023-01-30T12:17:30.304Z,41.10
2023-01-30T12:20:20.792Z,37.00
2023-01-30T12:23:11.843Z,37.30
2023-01-30T12:26:01.838Z,35.20
2023-01-30T12:28:49.537Z,35.70
2023-01-30T12:31:32.143Z,42.30
2023-01-30T12:34:11.132Z,43.30
2023-01-30T12:37:04.774Z,41.80
2023-01-30T12:39:58.641Z,43.10
2023-01-30T12:43:04.749Z,44.80
2023-01-30T12:45:48.840Z,46.40
2023-01-30T12:49:11.733Z,42.10
2023-01-30T12:52:16.023Z,39.80
2023-01-30T12:55:05.185Z,47.00
2023-01-30T12:57:53.226Z,43.20
2023-01-30T13:01:12.030Z,42.90
2023-01-30T13:03:57.801Z,38.20
2023-01-30T13:07:00.899Z,50.00
2023-01-30T13:10:01.103Z,51.50
2023-01-30T13:12:51.660Z,45.30
2023-01-30T13:15:40.869Z,50.40
2023-01-30T13:18:25.078Z,41.10
2023-01-30T13:21:14.655Z,56.40
2023-01-30T13:24:09.799Z,53.00
2023-01-30T13:26:48.650Z,47.70
2023-01-30T13:29:36.052Z,48.90
2023-01-30T13:32:21.660Z,41.10
2023-01-30T13:35:02.285Z,40.30
2023-01-30T13:37:40.631Z,44.50
2023-01-30T13:40:27.912Z,42.10
2023-01-30T13:43:15.070Z,40.90
2023-01-30T13:45:55.650Z,41.60
2023-01-30T13:48:49.755Z,39.20
2023-01-30T13:51:51.170Z,40.70
2023-01-30T13:54:50.127Z,48.60
2023-01-30T13:57:46.182Z,46.30
2023-01-30T14:00:35.222Z,50.60
2023-01-30T14:03:44.301Z,41.00
2023-01-30T14:06:41.711Z,43.70
2023-01-30T14:09:35.771Z,44.20
2023-01-30T14:12:22.792Z,50.90
2023-01-30T14:15:24.507Z,44.90
2023-01-30T14:18:19.920Z,51.20
2023-01-30T14:21:15.162Z,49.70
2023-01-30T14:24:03.232Z,51.80
2023-01-30T14:27:24.704Z,45.50
2023-01-30T14:30:02.873Z,45.70
2023-01-30T14:32:59.423Z,46.80
2023-01-30T14:35:36.600Z,45.10
2023-01-30T14:38:21.591Z,49.40
2023-01-30T14:41:31.162Z,46.40
2023-01-30T14:44:10.422Z,55.30
2023-01-30T14:46:59.853Z,42.80
2023-01-30T14:49:45.941Z,50.90
2023-01-30T14:52:42.021Z,45.00
2023-01-30T14:55:30.003Z,41.50
2023-01-30T14:58:17.903Z,37.90
2023-01-30T15:01:02.419Z,39.90
2023-01-30T15:03:41.692Z,38.20
2023-01-30T15:06:20.039Z,37.00
2023-01-30T15:08:57.569Z,40.50
2023-01-30T15:11:39.776Z,37.40
2023-01-30T15:14:25.574Z,37.90
2023-01-30T15:17:28.297Z,40.60
2023-01-30T15:20:44.597Z,43.60
2023-01-30T15:26:53.604Z,40.80
2023-01-30T15:30:05.871Z,43.00
2023-01-30T15:32:43.620Z,42.80
2023-01-30T15:35:30.321Z,36.90
2023-01-30T15:38:06.243Z,42.50
2023-01-30T15:40:46.568Z,40.90
2023-01-30T15:43:53.153Z,36.40
2023-01-30T15:46:44.292Z,41.60
2023-01-30T15:49:52.001Z,41.90
2023-01-30T15:52:33.726Z,41.40
2023-01-30T15:55:18.147Z,47.40
2023-01-30T15:57:59.343Z,49.70
2023-01-30T16:00:43.102Z,51.40
2023-01-30T16:03:27.663Z,53.90
2023-01-30T16:06:05.059Z,45.80
2023-01-30T16:08:42.939Z,42.20
2023-01-30T16:11:34.478Z,49.30
2023-01-30T16:14:14.744Z,48.00
2023-01-30T16:16:55.991Z,53.80
2023-01-30T16:19:37.829Z,44.70
2023-01-30T16:22:25.272Z,45.50
2023-01-30T16:25:03.150Z,45.00
2023-01-30T16:27:41.981Z,44.30
2023-01-30T16:30:27.507Z,43.90
2023-01-30T16:33:13.422Z,54.50
2023-01-30T16:35:52.588Z,45.60
2023-01-30T16:38:46.508Z,53.00
2023-01-30T16:41:37.628Z,65.00
2023-01-30T16:44:25.462Z,64.00
2023-01-30T16:47:07.780Z,63.40
2023-01-30T16:50:00.058Z,61.10
2023-01-30T16:52:47.232Z,60.70
2023-01-30T16:55:30.002Z,59.00
2023-01-30T16:58:09.860Z,53.10
2023-01-30T17:00:53.668Z,53.40
2023-01-30T17:03:37.824Z,53.20
2023-01-30T17:06:28.224Z,62.40
2023-01-30T17:09:05.842Z,61.00
2023-01-30T17:11:44.507Z,56.80
2023-01-30T17:14:30.708Z,55.80
2023-01-30T17:17:11.089Z,53.60
2023-01-30T17:19:48.563Z,54.20
2023-01-30T17:22:26.555Z,52.50
2023-01-30T17:25:09.795Z,55.20
2023-01-30T17:27:46.538Z,52.40
2023-01-30T17:30:28.027Z,56.20
2023-01-30T17:33:05.431Z,48.70
2023-01-30T17:35:43.134Z,50.40
2023-01-30T17:38:21.629Z,47.10
2023-01-30T17:40:58.348Z,56.70
2023-01-30T17:43:35.015Z,59.10
2023-01-30T17:46:14.013Z,59.50
2023-01-30T17:48:51.958Z,59.90
2023-01-30T17:51:28.848Z,60.60
2023-01-30T17:54:06.379Z,60.80
2023-01-30T17:56:46.254Z,52.80
2023-01-30T17:59:24.099Z,56.60
2023-01-30T18:02:01.818Z,55.70
2023-01-30T18:04:40.224Z,53.30
2023-01-30T18:07:20.835Z,55.30
2023-01-30T18:09:57.683Z,53.40
2023-01-30T18:12:35.289Z,53.40
2023-01-30T18:15:16.835Z,55.00
2023-01-30T18:17:56.599Z,65.20
2023-01-30T18:20:33.544Z,65.30
2023-01-30T18:23:11.099Z,55.50
2023-01-30T18:25:47.359Z,57.20
2023-01-30T18:28:24.941Z,60.10
2023-01-30T18:31:02.099Z,61.10
2023-01-30T18:33:39.450Z,53.90
2023-01-30T18:36:18.716Z,52.70
2023-01-30T18:38:56.044Z,56.70
2023-01-30T18:41:33.090Z,55.30
2023-01-30T18:44:13.151Z,51.50
2023-01-30T18:46:51.401Z,57.90
2023-01-30T18:49:28.365Z,57.00
2023-01-30T18:52:04.392Z,57.40
2023-01-30T18:54:41.220Z,61.40
2023-01-30T18:57:18.469Z,53.00
2023-01-30T18:59:55.367Z,65.80
2023-01-30T19:02:32.957Z,69.20
2023-01-30T19:05:11.472Z,53.20
2023-01-30T19:07:47.721Z,56.80
2023-01-30T19:10:25.333Z,56.10
2023-01-30T19:13:17.799Z,64.50
2023-01-30T19:16:00.075Z,64.70
2023-01-30T19:18:38.034Z,61.50
2023-01-30T19:21:15.536Z,57.40
2023-01-30T19:23:52.361Z,60.90
2023-01-30T19:26:30.202Z,59.00
2023-01-30T19:29:06.280Z,56.20
2023-01-30T19:31:42.031Z,50.50
2023-01-30T19:34:19.962Z,57.80
2023-01-30T19:36:56.338Z,56.40
2023-01-30T19:39:33.423Z,53.50
2023-01-30T19:42:10.693Z,60.80
2023-01-30T19:44:47.763Z,66.10
2023-01-30T19:47:25.212Z,62.00
2023-01-30T19:50:02.655Z,55.10
2023-01-30T19:52:39.708Z,58.80
2023-01-30T19:55:18.988Z,55.40
2023-01-30T19:57:54.888Z,54.90
2023-01-30T20:00:32.679Z,56.70
2023-01-30T20:03:09.186Z,57.90
2023-01-30T20:05:46.542Z,53.10
2023-01-30T20:08:32.179Z,60.20
2023-01-30T20:11:15.570Z,46.90
2023-01-30T20:13:53.642Z,48.50
2023-01-30T20:16:32.299Z,50.90
2023-01-30T20:19:11.936Z,54.80
2023-01-30T20:21:48.965Z,59.70
2023-01-30T20:24:25.136Z,57.80
2023-01-30T20:27:02.454Z,61.80
2023-01-30T20:29:39.814Z,50.60
2023-01-30T20:32:16.492Z,56.00
2023-01-30T20:34:53.720Z,55.10
2023-01-30T20:37:31.391Z,55.60
2023-01-30T20:40:09.726Z,56.40
2023-01-30T20:42:47.287Z,52.40
2023-01-30T20:45:24.565Z,49.90
2023-01-30T20:48:01.481Z,53.60
2023-01-30T20:50:38.563Z,52.70
2023-01-30T20:53:15.661Z,45.30
2023-01-30T20:55:53.026Z,51.80
2023-01-30T20:58:29.354Z,48.10
2023-01-30T21:01:17.673Z,59.50
2023-01-30T21:03:56.845Z,56.00
2023-01-30T21:06:42.921Z,60.10
2023-01-30T21:09:24.578Z,51.90
2023-01-30T21:12:01.033Z,54.30
2023-01-30T21:14:38.208Z,56.40
2023-01-30T21:17:14.711Z,49.30
2023-01-30T21:19:51.240Z,52.50
2023-01-30T21:22:28.264Z,53.80
2023-01-30T21:25:05.340Z,56.00
2023-01-30T21:27:41.438Z,53.70
2023-01-30T21:30:22.479Z,55.40
2023-01-30T21:33:00.036Z,61.30
2023-01-30T21:35:38.002Z,62.20
2023-01-30T21:38:33.190Z,56.60
2023-01-30T21:41:27.331Z,52.90
2023-01-30T21:44:04.542Z,53.00
2023-01-30T21:46:45.655Z,52.20
2023-01-30T21:49:23.672Z,65.20
2023-01-30T21:51:59.630Z,57.20
2023-01-30T21:54:37.811Z,51.90
2023-01-30T21:57:14.788Z,57.30
2023-01-30T21:59:51.926Z,56.90
2023-01-30T22:02:28.910Z,50.00
2023-01-30T22:05:04.417Z,54.80
2023-01-30T22:07:41.766Z,57.10
2023-01-30T22:10:21.892Z,61.60
2023-01-30T22:12:58.575Z,55.50
2023-01-30T22:15:35.575Z,56.40
2023-01-30T22:18:13.311Z,64.80
2023-01-30T22:20:50.264Z,57.30
2023-01-30T22:23:27.280Z,51.90
2023-01-30T22:26:04.042Z,55.90
2023-01-30T22:28:40.529Z,56.30
2023-01-30T22:31:19.700Z,53.70
2023-01-30T22:33:59.086Z,55.30
2023-01-30T22:36:38.745Z,50.20
2023-01-30T22:39:15.724Z,49.20
2023-01-30T22:41:52.341Z,50.40
2023-01-30T22:44:30.393Z,50.40
2023-01-30T22:47:06.783Z,50.00
2023-01-30T22:49:43.580Z,45.10
2023-01-30T22:52:20.061Z,53.20
2023-01-30T22:54:56.711Z,55.40
2023-01-30T22:57:33.069Z,58.00
2023-01-30T23:00:16.319Z,57.50
2023-01-30T23:02:53.773Z,57.20
2023-01-30T23:05:31.507Z,54.10
2023-01-30T23:08:09.201Z,50.00
2023-01-30T23:10:48.153Z,52.30
2023-01-30T23:13:25.431Z,51.10
2023-01-30T23:16:04.176Z,47.50
2023-01-30T23:19:02.737Z,53.50
2023-01-30T23:21:41.905Z,53.70
2023-01-30T23:24:21.790Z,55.40
2023-01-30T23:26:58.704Z,45.90
2023-01-30T23:29:38.017Z,51.70
2023-01-30T23:32:15.629Z,48.00
2023-01-30T23:34:51.938Z,55.90
2023-01-30T23:37:42.202Z,54.60
2023-01-30T23:40:22.903Z,52.00
2023-01-30T23:42:59.455Z,52.30
2023-01-30T23:45:38.888Z,52.20
2023-01-30T23:48:16.614Z,40.70
2023-01-30T23:50:54.226Z,44.40
2023-01-30T23:53:31.026Z,48.70
2023-01-30T23:56:08.697Z,51.40
2023-01-30T23:58:44.774Z,47.50
